sensor_id;sensor_type;location;lat;lon;timestamp;P1;durP1;ratioP1;P2;durP2;ratioP2
75603;SDS011;64187;51.010;13.792;2023-04-06T00:01:23;6.32;;;4.40;;
75603;SDS011;64187;51.010;13.792;2023-04-06T00:06:22;8.55;;;4.57;;
75603;SDS011;64187;51.010;13.792;2023-04-06T00:11:21;5.85;;;4.10;;
75603;SDS011;64187;51.010;13.792;2023-04-06T00:16:19;5.95;;;4.00;;
75603;SDS011;64187;51.010;13.792;2023-04-06T00:21:22;8.55;;;4.53;;
75603;SDS011;64187;51.010;13.792;2023-04-06T00:26:21;4.63;;;3.80;;
75603;SDS011;64187;51.010;13.792;2023-04-06T00:36:46;4.35;;;3.67;;
75603;SDS011;64187;51.010;13.792;2023-04-06T00:41:50;5.93;;;3.70;;
75603;SDS011;64187;51.010;13.792;2023-04-06T00:46:51;5.60;;;3.45;;
75603;SDS011;64187;51.010;13.792;2023-04-06T00:51:50;4.95;;;3.47;;
75603;SDS011;64187;51.010;13.792;2023-04-06T00:56:49;5.63;;;4.03;;
75603;SDS011;64187;51.010;13.792;2023-04-06T01:01:48;7.38;;;3.45;;
75603;SDS011;64187;51.010;13.792;2023-04-06T01:07:10;4.85;;;4.07;;
75603;SDS011;64187;51.010;13.792;2023-04-06T01:12:17;4.65;;;3.13;;
75603;SDS011;64187;51.010;13.792;2023-04-06T01:17:16;4.95;;;3.20;;
75603;SDS011;64187;51.010;13.792;2023-04-06T01:22:16;7.72;;;4.18;;
75603;SDS011;64187;51.010;13.792;2023-04-06T01:27:22;7.53;;;3.72;;
75603;SDS011;64187;51.010;13.792;2023-04-06T01:32:50;4.75;;;3.58;;
75603;SDS011;64187;51.010;13.792;2023-04-06T01:38:03;4.88;;;3.72;;
75603;SDS011;64187;51.010;13.792;2023-04-06T01:43:06;5.15;;;3.38;;
75603;SDS011;64187;51.010;13.792;2023-04-06T01:48:14;5.72;;;3.72;;
75603;SDS011;64187;51.010;13.792;2023-04-06T01:53:14;6.05;;;3.45;;
75603;SDS011;64187;51.010;13.792;2023-04-06T01:58:16;5.97;;;4.22;;
75603;SDS011;64187;51.010;13.792;2023-04-06T02:03:15;7.07;;;3.20;;
75603;SDS011;64187;51.010;13.792;2023-04-06T02:08:19;5.75;;;3.63;;
75603;SDS011;64187;51.010;13.792;2023-04-06T02:13:18;6.05;;;3.42;;
75603;SDS011;64187;51.010;13.792;2023-04-06T02:18:21;4.78;;;3.10;;
75603;SDS011;64187;51.010;13.792;2023-04-06T02:23:20;5.28;;;4.07;;
75603;SDS011;64187;51.010;13.792;2023-04-06T02:28:19;3.97;;;3.53;;
75603;SDS011;64187;51.010;13.792;2023-04-06T02:33:18;5.68;;;3.85;;
75603;SDS011;64187;51.010;13.792;2023-04-06T02:38:18;3.78;;;3.00;;
75603;SDS011;64187;51.010;13.792;2023-04-06T02:43:18;6.70;;;3.95;;
75603;SDS011;64187;51.010;13.792;2023-04-06T02:48:20;3.97;;;3.45;;
75603;SDS011;64187;51.010;13.792;2023-04-06T02:53:20;5.13;;;3.08;;
75603;SDS011;64187;51.010;13.792;2023-04-06T02:58:19;8.45;;;3.90;;
75603;SDS011;64187;51.010;13.792;2023-04-06T03:03:23;5.45;;;3.42;;
75603;SDS011;64187;51.010;13.792;2023-04-06T03:08:23;5.68;;;3.35;;
75603;SDS011;64187;51.010;13.792;2023-04-06T03:13:22;5.95;;;3.47;;
75603;SDS011;64187;51.010;13.792;2023-04-06T03:18:24;4.85;;;3.63;;
75603;SDS011;64187;51.010;13.792;2023-04-06T03:23:26;6.13;;;3.72;;
75603;SDS011;64187;51.010;13.792;2023-04-06T03:28:29;8.52;;;3.20;;
75603;SDS011;64187;51.010;13.792;2023-04-06T03:33:31;6.88;;;2.88;;
75603;SDS011;64187;51.010;13.792;2023-04-06T03:38:30;4.57;;;3.10;;
75603;SDS011;64187;51.010;13.792;2023-04-06T03:43:29;5.25;;;3.28;;
75603;SDS011;64187;51.010;13.792;2023-04-06T03:48:28;4.90;;;3.47;;
75603;SDS011;64187;51.010;13.792;2023-04-06T03:53:32;5.22;;;3.20;;
75603;SDS011;64187;51.010;13.792;2023-04-06T03:58:31;6.30;;;3.40;;
75603;SDS011;64187;51.010;13.792;2023-04-06T04:03:30;6.28;;;3.50;;
75603;SDS011;64187;51.010;13.792;2023-04-06T04:08:29;7.65;;;3.83;;
75603;SDS011;64187;51.010;13.792;2023-04-06T04:13:28;4.75;;;3.08;;
75603;SDS011;64187;51.010;13.792;2023-04-06T04:18:28;5.53;;;3.05;;
75603;SDS011;64187;51.010;13.792;2023-04-06T04:23:27;5.45;;;3.55;;
75603;SDS011;64187;51.010;13.792;2023-04-06T04:28:26;6.13;;;3.17;;
75603;SDS011;64187;51.010;13.792;2023-04-06T04:33:26;7.78;;;3.47;;
75603;SDS011;64187;51.010;13.792;2023-04-06T04:38:27;5.72;;;3.35;;
75603;SDS011;64187;51.010;13.792;2023-04-06T04:43:28;4.72;;;2.90;;
75603;SDS011;64187;51.010;13.792;2023-04-06T04:48:32;4.15;;;3.45;;
75603;SDS011;64187;51.010;13.792;2023-04-06T04:53:34;7.22;;;4.07;;
75603;SDS011;64187;51.010;13.792;2023-04-06T04:58:43;5.95;;;4.10;;
75603;SDS011;64187;51.010;13.792;2023-04-06T05:03:43;8.15;;;4.72;;
75603;SDS011;64187;51.010;13.792;2023-04-06T05:08:45;6.15;;;4.38;;
75603;SDS011;64187;51.010;13.792;2023-04-06T05:13:45;5.75;;;3.90;;
75603;SDS011;64187;51.010;13.792;2023-04-06T05:18:49;7.78;;;4.15;;
75603;SDS011;64187;51.010;13.792;2023-04-06T05:23:49;9.00;;;4.65;;
75603;SDS011;64187;51.010;13.792;2023-04-06T05:28:48;7.43;;;4.20;;
75603;SDS011;64187;51.010;13.792;2023-04-06T05:33:48;6.78;;;4.07;;
75603;SDS011;64187;51.010;13.792;2023-04-06T05:38:57;6.68;;;4.47;;
75603;SDS011;64187;51.010;13.792;2023-04-06T05:44:11;7.07;;;4.43;;
75603;SDS011;64187;51.010;13.792;2023-04-06T05:49:14;8.23;;;3.92;;
75603;SDS011;64187;51.010;13.792;2023-04-06T05:54:13;5.72;;;3.65;;
75603;SDS011;64187;51.010;13.792;2023-04-06T05:59:13;6.95;;;4.28;;
75603;SDS011;64187;51.010;13.792;2023-04-06T06:04:15;6.85;;;4.55;;
75603;SDS011;64187;51.010;13.792;2023-04-06T06:09:15;6.63;;;4.63;;
75603;SDS011;64187;51.010;13.792;2023-04-06T06:14:24;7.57;;;4.43;;
75603;SDS011;64187;51.010;13.792;2023-04-06T06:19:23;8.82;;;4.80;;
75603;SDS011;64187;51.010;13.792;2023-04-06T06:24:26;6.03;;;5.03;;
75603;SDS011;64187;51.010;13.792;2023-04-06T06:29:30;7.90;;;5.22;;
75603;SDS011;64187;51.010;13.792;2023-04-06T06:34:30;10.45;;;5.32;;
75603;SDS011;64187;51.010;13.792;2023-04-06T06:39:33;11.43;;;5.20;;
75603;SDS011;64187;51.010;13.792;2023-04-06T06:44:32;8.85;;;5.20;;
75603;SDS011;64187;51.010;13.792;2023-04-06T06:49:31;7.65;;;5.28;;
75603;SDS011;64187;51.010;13.792;2023-04-06T06:54:30;9.13;;;6.03;;
75603;SDS011;64187;51.010;13.792;2023-04-06T06:59:29;9.30;;;5.95;;
75603;SDS011;64187;51.010;13.792;2023-04-06T07:04:28;7.05;;;4.47;;
75603;SDS011;64187;51.010;13.792;2023-04-06T07:09:27;7.53;;;5.50;;
75603;SDS011;64187;51.010;13.792;2023-04-06T07:14:26;6.95;;;4.75;;
75603;SDS011;64187;51.010;13.792;2023-04-06T07:19:25;6.63;;;5.28;;
75603;SDS011;64187;51.010;13.792;2023-04-06T07:24:24;12.77;;;5.22;;
75603;SDS011;64187;51.010;13.792;2023-04-06T07:29:23;6.90;;;5.25;;
75603;SDS011;64187;51.010;13.792;2023-04-06T07:34:22;6.82;;;5.00;;
75603;SDS011;64187;51.010;13.792;2023-04-06T07:39:21;10.35;;;5.50;;
75603;SDS011;64187;51.010;13.792;2023-04-06T07:44:21;10.68;;;6.13;;
75603;SDS011;64187;51.010;13.792;2023-04-06T07:49:20;11.05;;;5.90;;
75603;SDS011;64187;51.010;13.792;2023-04-06T07:54:20;9.98;;;5.68;;
75603;SDS011;64187;51.010;13.792;2023-04-06T07:59:19;9.63;;;4.95;;
75603;SDS011;64187;51.010;13.792;2023-04-06T08:04:18;8.70;;;5.68;;
75603;SDS011;64187;51.010;13.792;2023-04-06T08:09:17;8.30;;;5.55;;
75603;SDS011;64187;51.010;13.792;2023-04-06T08:14:16;8.13;;;6.10;;
75603;SDS011;64187;51.010;13.792;2023-04-06T08:19:15;10.23;;;5.65;;
75603;SDS011;64187;51.010;13.792;2023-04-06T08:24:17;10.55;;;5.93;;
75603;SDS011;64187;51.010;13.792;2023-04-06T08:29:16;7.72;;;5.43;;
75603;SDS011;64187;51.010;13.792;2023-04-06T08:34:15;7.60;;;5.05;;
75603;SDS011;64187;51.010;13.792;2023-04-06T08:39:14;7.32;;;5.22;;
75603;SDS011;64187;51.010;13.792;2023-04-06T08:44:13;7.35;;;5.38;;
75603;SDS011;64187;51.010;13.792;2023-04-06T08:49:12;7.90;;;5.63;;
75603;SDS011;64187;51.010;13.792;2023-04-06T08:54:14;7.38;;;5.05;;
75603;SDS011;64187;51.010;13.792;2023-04-06T08:59:13;7.25;;;5.72;;
75603;SDS011;64187;51.010;13.792;2023-04-06T09:04:12;6.68;;;4.40;;
75603;SDS011;64187;51.010;13.792;2023-04-06T09:09:12;6.18;;;4.85;;
75603;SDS011;64187;51.010;13.792;2023-04-06T09:14:11;5.75;;;2.80;;
75603;SDS011;64187;51.010;13.792;2023-04-06T09:19:11;5.53;;;4.25;;
75603;SDS011;64187;51.010;13.792;2023-04-06T09:24:11;4.63;;;3.78;;
75603;SDS011;64187;51.010;13.792;2023-04-06T09:29:10;6.05;;;4.15;;
75603;SDS011;64187;51.010;13.792;2023-04-06T09:34:19;6.93;;;4.35;;
75603;SDS011;64187;51.010;13.792;2023-04-06T09:39:22;5.78;;;4.50;;
75603;SDS011;64187;51.010;13.792;2023-04-06T09:44:24;5.00;;;4.43;;
75603;SDS011;64187;51.010;13.792;2023-04-06T09:49:23;5.07;;;3.97;;
75603;SDS011;64187;51.010;13.792;2023-04-06T09:54:27;5.65;;;4.90;;
75603;SDS011;64187;51.010;13.792;2023-04-06T10:10:07;7.60;;;4.38;;
75603;SDS011;64187;51.010;13.792;2023-04-06T10:15:08;4.43;;;3.83;;
75603;SDS011;64187;51.010;13.792;2023-04-06T10:20:54;4.60;;;3.58;;
75603;SDS011;64187;51.010;13.792;2023-04-06T10:25:35;4.93;;;4.10;;
75603;SDS011;64187;51.010;13.792;2023-04-06T10:30:41;7.18;;;3.92;;
75603;SDS011;64187;51.010;13.792;2023-04-06T10:35:41;5.72;;;4.40;;
75603;SDS011;64187;51.010;13.792;2023-04-06T10:40:41;4.32;;;3.80;;
75603;SDS011;64187;51.010;13.792;2023-04-06T10:45:45;5.32;;;4.07;;
75603;SDS011;64187;51.010;13.792;2023-04-06T10:50:55;4.45;;;3.42;;
75603;SDS011;64187;51.010;13.792;2023-04-06T10:55:55;4.78;;;4.30;;
75603;SDS011;64187;51.010;13.792;2023-04-06T11:00:55;5.13;;;3.97;;
75603;SDS011;64187;51.010;13.792;2023-04-06T11:05:54;6.97;;;3.97;;
75603;SDS011;64187;51.010;13.792;2023-04-06T11:16:04;5.70;;;4.20;;
75603;SDS011;64187;51.010;13.792;2023-04-06T11:21:03;5.13;;;4.20;;
75603;SDS011;64187;51.010;13.792;2023-04-06T11:26:02;4.57;;;4.00;;
75603;SDS011;64187;51.010;13.792;2023-04-06T11:31:01;5.03;;;4.53;;
75603;SDS011;64187;51.010;13.792;2023-04-06T11:36:01;4.00;;;3.60;;
75603;SDS011;64187;51.010;13.792;2023-04-06T11:41:00;6.00;;;3.38;;
75603;SDS011;64187;51.010;13.792;2023-04-06T11:46:03;4.20;;;3.40;;
75603;SDS011;64187;51.010;13.792;2023-04-06T11:51:03;5.55;;;3.55;;
75603;SDS011;64187;51.010;13.792;2023-04-06T11:56:03;4.43;;;3.72;;
75603;SDS011;64187;51.010;13.792;2023-04-06T12:01:03;5.13;;;3.40;;
75603;SDS011;64187;51.010;13.792;2023-04-06T12:06:02;4.65;;;3.45;;
75603;SDS011;64187;51.010;13.792;2023-04-06T12:11:01;4.75;;;3.00;;
75603;SDS011;64187;51.010;13.792;2023-04-06T12:16:03;4.93;;;4.40;;
75603;SDS011;64187;51.010;13.792;2023-04-06T12:21:02;4.40;;;4.00;;
75603;SDS011;64187;51.010;13.792;2023-04-06T12:26:01;4.35;;;3.65;;
75603;SDS011;64187;51.010;13.792;2023-04-06T12:31:01;6.45;;;4.65;;
75603;SDS011;64187;51.010;13.792;2023-04-06T12:36:00;4.40;;;3.47;;
75603;SDS011;64187;51.010;13.792;2023-04-06T12:40:59;8.93;;;4.15;;
75603;SDS011;64187;51.010;13.792;2023-04-06T12:46:00;5.28;;;4.78;;
75603;SDS011;64187;51.010;13.792;2023-04-06T12:51:00;5.38;;;4.85;;
75603;SDS011;64187;51.010;13.792;2023-04-06T12:56:00;6.63;;;4.63;;
75603;SDS011;64187;51.010;13.792;2023-04-06T13:01:00;4.28;;;3.85;;
75603;SDS011;64187;51.010;13.792;2023-04-06T13:06:01;2.95;;;2.63;;
75603;SDS011;64187;51.010;13.792;2023-04-06T13:11:00;4.20;;;3.60;;
75603;SDS011;64187;51.010;13.792;2023-04-06T13:16:00;4.38;;;3.22;;
75603;SDS011;64187;51.010;13.792;2023-04-06T13:21:02;4.53;;;3.83;;
75603;SDS011;64187;51.010;13.792;2023-04-06T13:26:02;4.03;;;3.72;;
75603;SDS011;64187;51.010;13.792;2023-04-06T13:31:03;4.22;;;3.83;;
75603;SDS011;64187;51.010;13.792;2023-04-06T13:36:02;7.38;;;4.18;;
75603;SDS011;64187;51.010;13.792;2023-04-06T13:41:01;5.10;;;3.85;;
75603;SDS011;64187;51.010;13.792;2023-04-06T13:46:00;7.93;;;4.13;;
75603;SDS011;64187;51.010;13.792;2023-04-06T13:51:07;4.10;;;3.65;;
75603;SDS011;64187;51.010;13.792;2023-04-06T13:56:07;4.07;;;3.67;;
75603;SDS011;64187;51.010;13.792;2023-04-06T14:01:07;4.45;;;4.00;;
75603;SDS011;64187;51.010;13.792;2023-04-06T14:06:09;4.80;;;3.83;;
75603;SDS011;64187;51.010;13.792;2023-04-06T14:11:24;4.20;;;3.60;;
75603;SDS011;64187;51.010;13.792;2023-04-06T14:16:23;4.25;;;3.85;;
75603;SDS011;64187;51.010;13.792;2023-04-06T14:21:23;4.00;;;3.65;;
75603;SDS011;64187;51.010;13.792;2023-04-06T14:26:21;5.53;;;3.40;;
75603;SDS011;64187;51.010;13.792;2023-04-06T14:31:21;4.70;;;4.00;;
75603;SDS011;64187;51.010;13.792;2023-04-06T14:36:20;5.22;;;3.88;;
75603;SDS011;64187;51.010;13.792;2023-04-06T14:41:21;4.57;;;4.18;;
75603;SDS011;64187;51.010;13.792;2023-04-06T14:51:20;4.53;;;3.25;;
75603;SDS011;64187;51.010;13.792;2023-04-06T14:56:20;5.18;;;3.38;;
75603;SDS011;64187;51.010;13.792;2023-04-06T15:01:20;5.82;;;3.75;;
75603;SDS011;64187;51.010;13.792;2023-04-06T15:06:19;4.40;;;4.00;;
75603;SDS011;64187;51.010;13.792;2023-04-06T15:11:19;4.50;;;3.60;;
75603;SDS011;64187;51.010;13.792;2023-04-06T15:16:18;5.18;;;3.58;;
75603;SDS011;64187;51.010;13.792;2023-04-06T15:21:17;5.32;;;3.58;;
75603;SDS011;64187;51.010;13.792;2023-04-06T15:26:18;4.43;;;3.90;;
75603;SDS011;64187;51.010;13.792;2023-04-06T15:31:19;4.10;;;3.70;;
75603;SDS011;64187;51.010;13.792;2023-04-06T15:36:35;3.95;;;3.58;;
75603;SDS011;64187;51.010;13.792;2023-04-06T15:41:34;4.20;;;3.75;;
75603;SDS011;64187;51.010;13.792;2023-04-06T15:46:34;5.13;;;4.07;;
75603;SDS011;64187;51.010;13.792;2023-04-06T15:51:32;5.15;;;3.78;;
75603;SDS011;64187;51.010;13.792;2023-04-06T15:56:31;4.10;;;3.75;;
75603;SDS011;64187;51.010;13.792;2023-04-06T16:01:31;5.50;;;4.72;;
75603;SDS011;64187;51.010;13.792;2023-04-06T16:06:30;5.22;;;3.60;;
75603;SDS011;64187;51.010;13.792;2023-04-06T16:11:30;5.47;;;3.67;;
75603;SDS011;64187;51.010;13.792;2023-04-06T16:16:30;4.88;;;3.97;;
75603;SDS011;64187;51.010;13.792;2023-04-06T16:21:29;4.43;;;3.75;;
75603;SDS011;64187;51.010;13.792;2023-04-06T16:26:28;4.15;;;3.75;;
75603;SDS011;64187;51.010;13.792;2023-04-06T16:31:27;4.57;;;3.70;;
75603;SDS011;64187;51.010;13.792;2023-04-06T16:36:28;4.32;;;3.50;;
75603;SDS011;64187;51.010;13.792;2023-04-06T16:41:29;4.57;;;3.60;;
75603;SDS011;64187;51.010;13.792;2023-04-06T16:46:32;3.78;;;3.10;;
75603;SDS011;64187;51.010;13.792;2023-04-06T16:51:33;4.70;;;3.47;;
75603;SDS011;64187;51.010;13.792;2023-04-06T16:56:33;3.53;;;2.90;;
75603;SDS011;64187;51.010;13.792;2023-04-06T17:01:31;3.58;;;3.28;;
75603;SDS011;64187;51.010;13.792;2023-04-06T17:06:31;3.95;;;3.65;;
75603;SDS011;64187;51.010;13.792;2023-04-06T17:11:30;3.33;;;3.03;;
75603;SDS011;64187;51.010;13.792;2023-04-06T17:16:44;3.80;;;3.30;;
75603;SDS011;64187;51.010;13.792;2023-04-06T17:21:43;7.38;;;4.13;;
75603;SDS011;64187;51.010;13.792;2023-04-06T17:26:42;5.55;;;3.30;;
75603;SDS011;64187;51.010;13.792;2023-04-06T17:31:42;4.15;;;3.65;;
75603;SDS011;64187;51.010;13.792;2023-04-06T17:36:42;5.00;;;3.85;;
75603;SDS011;64187;51.010;13.792;2023-04-06T17:41:41;5.18;;;3.75;;
75603;SDS011;64187;51.010;13.792;2023-04-06T17:46:40;4.10;;;3.38;;
75603;SDS011;64187;51.010;13.792;2023-04-06T17:51:39;5.13;;;4.18;;
75603;SDS011;64187;51.010;13.792;2023-04-06T17:56:38;6.13;;;4.90;;
75603;SDS011;64187;51.010;13.792;2023-04-06T18:01:37;4.82;;;3.95;;
75603;SDS011;64187;51.010;13.792;2023-04-06T18:06:37;4.80;;;3.90;;
75603;SDS011;64187;51.010;13.792;2023-04-06T18:11:36;4.72;;;4.13;;
75603;SDS011;64187;51.010;13.792;2023-04-06T18:16:34;6.53;;;5.70;;
75603;SDS011;64187;51.010;13.792;2023-04-06T18:21:34;6.05;;;5.28;;
75603;SDS011;64187;51.010;13.792;2023-04-06T18:26:33;5.80;;;5.20;;
75603;SDS011;64187;51.010;13.792;2023-04-06T18:31:33;4.90;;;4.40;;
75603;SDS011;64187;51.010;13.792;2023-04-06T18:36:36;5.32;;;4.68;;
75603;SDS011;64187;51.010;13.792;2023-04-06T18:41:35;5.18;;;4.38;;
75603;SDS011;64187;51.010;13.792;2023-04-06T18:46:34;5.53;;;4.95;;
75603;SDS011;64187;51.010;13.792;2023-04-06T18:51:33;5.47;;;4.05;;
75603;SDS011;64187;51.010;13.792;2023-04-06T18:56:32;8.68;;;4.50;;
75603;SDS011;64187;51.010;13.792;2023-04-06T19:01:31;5.63;;;4.43;;
75603;SDS011;64187;51.010;13.792;2023-04-06T19:06:30;6.68;;;4.80;;
75603;SDS011;64187;51.010;13.792;2023-04-06T19:11:30;6.05;;;4.90;;
75603;SDS011;64187;51.010;13.792;2023-04-06T19:16:29;8.18;;;6.05;;
75603;SDS011;64187;51.010;13.792;2023-04-06T19:21:28;7.25;;;6.43;;
75603;SDS011;64187;51.010;13.792;2023-04-06T19:26:28;7.20;;;6.38;;
75603;SDS011;64187;51.010;13.792;2023-04-06T19:31:29;9.13;;;6.93;;
75603;SDS011;64187;51.010;13.792;2023-04-06T19:36:28;10.60;;;7.25;;
75603;SDS011;64187;51.010;13.792;2023-04-06T19:41:29;9.98;;;6.75;;
75603;SDS011;64187;51.010;13.792;2023-04-06T19:46:28;9.88;;;7.15;;
75603;SDS011;64187;51.010;13.792;2023-04-06T19:51:31;8.68;;;7.05;;
75603;SDS011;64187;51.010;13.792;2023-04-06T19:56:31;11.10;;;6.97;;
75603;SDS011;64187;51.010;13.792;2023-04-06T20:01:30;9.32;;;7.15;;
75603;SDS011;64187;51.010;13.792;2023-04-06T20:06:29;9.85;;;7.15;;
75603;SDS011;64187;51.010;13.792;2023-04-06T20:11:28;8.80;;;7.18;;
75603;SDS011;64187;51.010;13.792;2023-04-06T20:16:27;9.65;;;7.03;;
75603;SDS011;64187;51.010;13.792;2023-04-06T20:21:26;9.43;;;8.52;;
75603;SDS011;64187;51.010;13.792;2023-04-06T20:26:25;9.10;;;7.40;;
75603;SDS011;64187;51.010;13.792;2023-04-06T20:31:25;7.65;;;6.72;;
75603;SDS011;64187;51.010;13.792;2023-04-06T20:36:25;8.38;;;6.88;;
75603;SDS011;64187;51.010;13.792;2023-04-06T20:41:25;10.40;;;7.43;;
75603;SDS011;64187;51.010;13.792;2023-04-06T20:46:24;10.30;;;8.40;;
75603;SDS011;64187;51.010;13.792;2023-04-06T20:51:23;13.48;;;9.00;;
75603;SDS011;64187;51.010;13.792;2023-04-06T20:56:23;13.63;;;9.48;;
75603;SDS011;64187;51.010;13.792;2023-04-06T21:01:23;14.52;;;10.07;;
75603;SDS011;64187;51.010;13.792;2023-04-06T21:06:24;10.35;;;9.02;;
75603;SDS011;64187;51.010;13.792;2023-04-06T21:11:24;13.32;;;9.63;;
75603;SDS011;64187;51.010;13.792;2023-04-06T21:16:24;11.00;;;7.95;;
75603;SDS011;64187;51.010;13.792;2023-04-06T21:21:23;11.77;;;7.65;;
75603;SDS011;64187;51.010;13.792;2023-04-06T21:26:22;13.65;;;8.98;;
75603;SDS011;64187;51.010;13.792;2023-04-06T21:31:21;12.95;;;8.93;;
75603;SDS011;64187;51.010;13.792;2023-04-06T21:36:20;13.05;;;8.77;;
75603;SDS011;64187;51.010;13.792;2023-04-06T21:41:19;11.57;;;8.98;;
75603;SDS011;64187;51.010;13.792;2023-04-06T21:46:19;13.32;;;9.82;;
75603;SDS011;64187;51.010;13.792;2023-04-06T21:51:19;12.20;;;10.68;;
75603;SDS011;64187;51.010;13.792;2023-04-06T21:56:19;11.88;;;8.98;;
75603;SDS011;64187;51.010;13.792;2023-04-06T22:01:22;16.70;;;10.85;;
75603;SDS011;64187;51.010;13.792;2023-04-06T22:06:21;14.88;;;11.20;;
75603;SDS011;64187;51.010;13.792;2023-04-06T22:11:23;12.35;;;10.40;;
75603;SDS011;64187;51.010;13.792;2023-04-06T22:16:22;15.43;;;11.93;;
75603;SDS011;64187;51.010;13.792;2023-04-06T22:21:20;14.52;;;11.10;;
75603;SDS011;64187;51.010;13.792;2023-04-06T22:26:20;16.23;;;12.27;;
75603;SDS011;64187;51.010;13.792;2023-04-06T22:31:18;16.42;;;12.45;;
75603;SDS011;64187;51.010;13.792;2023-04-06T22:36:18;15.35;;;10.50;;
75603;SDS011;64187;51.010;13.792;2023-04-06T22:41:17;16.90;;;13.15;;
75603;SDS011;64187;51.010;13.792;2023-04-06T22:46:16;16.15;;;12.07;;
75603;SDS011;64187;51.010;13.792;2023-04-06T22:51:15;17.48;;;13.00;;
75603;SDS011;64187;51.010;13.792;2023-04-06T22:56:14;18.73;;;13.10;;
75603;SDS011;64187;51.010;13.792;2023-04-06T23:01:13;17.63;;;13.23;;
75603;SDS011;64187;51.010;13.792;2023-04-06T23:06:12;14.30;;;10.63;;
75603;SDS011;64187;51.010;13.792;2023-04-06T23:11:11;16.05;;;11.80;;
75603;SDS011;64187;51.010;13.792;2023-04-06T23:16:10;18.45;;;11.63;;
75603;SDS011;64187;51.010;13.792;2023-04-06T23:21:09;9.85;;;8.48;;
75603;SDS011;64187;51.010;13.792;2023-04-06T23:26:08;11.05;;;7.93;;
75603;SDS011;64187;51.010;13.792;2023-04-06T23:31:07;10.10;;;8.20;;
75603;SDS011;64187;51.010;13.792;2023-04-06T23:36:05;11.50;;;7.57;;
75603;SDS011;64187;51.010;13.792;2023-04-06T23:41:05;10.98;;;8.10;;
75603;SDS011;64187;51.010;13.792;2023-04-06T23:46:03;9.50;;;7.32;;
75603;SDS011;64187;51.010;13.792;2023-04-06T23:51:02;13.80;;;8.20;;
75603;SDS011;64187;51.010;13.792;2023-04-06T23:56:01;8.93;;;7.55;;
